createdAt,value
2017-04-28T04:00:35.217Z,1.6
2017-04-28T04:01:00.724Z,1.6
2017-04-28T04:01:26.203Z,1.67
2017-04-28T04:01:51.667Z,1.6
2017-04-28T04:02:17.091Z,1.66
2017-04-28T04:02:42.551Z,1.74
2017-04-28T04:03:08.063Z,1.73
2017-04-28T04:03:33.515Z,1.77
2017-04-28T04:03:59.000Z,1.74
2017-04-28T04:04:24.455Z,1.77
2017-04-28T04:04:49.940Z,1.71
2017-04-28T04:05:15.394Z,1.78
2017-04-28T04:05:40.839Z,1.77
2017-04-28T04:06:06.343Z,1.81
2017-04-28T04:06:31.824Z,1.81
2017-04-28T04:06:57.284Z,1.74
2017-04-28T04:07:22.753Z,1.7
2017-04-28T04:07:48.322Z,1.78
2017-04-28T04:08:13.727Z,1.8
2017-04-28T04:08:39.212Z,1.78
2017-04-28T04:09:04.668Z,1.84
2017-04-28T04:09:30.123Z,1.8
2017-04-28T04:09:55.599Z,1.71
2017-04-28T04:10:21.146Z,1.71
2017-04-28T04:10:46.627Z,1.76
2017-04-28T04:11:12.098Z,1.77
2017-04-28T04:11:37.538Z,1.76
2017-04-28T04:12:03.016Z,1.67
2017-04-28T04:12:28.476Z,1.73
2017-04-28T04:12:53.946Z,1.63
2017-04-28T04:13:19.416Z,1.66
2017-04-28T04:13:44.865Z,1.6
2017-04-28T04:14:10.337Z,1.55
2017-04-28T04:14:35.811Z,1.59
2017-04-28T04:15:01.255Z,1.59
2017-04-28T04:15:26.740Z,1.56
2017-04-28T04:15:52.223Z,1.58
2017-04-28T04:16:17.667Z,1.52
2017-04-28T04:16:43.146Z,1.45
2017-04-28T04:17:08.622Z,1.42
2017-04-28T04:17:34.076Z,1.4
2017-04-28T04:17:59.539Z,1.49
2017-04-28T04:18:25.020Z,1.41
2017-04-28T04:18:50.488Z,1.41
2017-04-28T04:19:15.928Z,1.42
2017-04-28T04:19:41.373Z,1.45
2017-04-28T04:20:06.829Z,1.42
2017-04-28T04:20:32.288Z,1.41
2017-04-28T04:20:57.751Z,1.42
2017-04-28T04:21:23.225Z,1.6
2017-04-28T04:21:48.720Z,1.42
2017-04-28T04:22:14.180Z,1.56
2017-04-28T04:22:39.617Z,1.45
2017-04-28T04:23:05.120Z,1.6
2017-04-28T04:23:30.568Z,1.49
2017-04-28T04:23:56.068Z,1.53
2017-04-28T04:24:21.551Z,1.55
2017-04-28T04:24:47.007Z,1.6
2017-04-28T04:25:12.480Z,1.59
2017-04-28T04:25:37.956Z,1.6
2017-04-28T04:26:03.397Z,1.66
2017-04-28T04:26:28.851Z,1.66
2017-04-28T04:26:54.319Z,1.6
2017-04-28T04:27:19.783Z,1.62
2017-04-28T04:27:45.245Z,1.66
2017-04-28T04:28:10.707Z,1.68
2017-04-28T04:28:36.179Z,1.76
2017-04-28T04:29:01.673Z,1.63
2017-04-28T04:29:27.114Z,1.71
2017-04-28T04:29:52.564Z,1.68
2017-04-28T04:30:18.105Z,1.71
2017-04-28T04:30:43.571Z,1.71
2017-04-28T04:31:09.049Z,1.76
2017-04-28T04:31:34.529Z,1.78
2017-04-28T04:31:59.990Z,1.74
2017-04-28T04:32:25.469Z,1.84
2017-04-28T04:32:50.922Z,1.87
2017-04-28T04:33:16.414Z,1.89
2017-04-28T04:33:41.874Z,1.77
2017-04-28T04:34:07.367Z,1.78
2017-04-28T04:34:32.814Z,1.87
2017-04-28T04:34:58.289Z,1.88
2017-04-28T04:35:23.764Z,1.87
2017-04-28T04:35:49.218Z,1.84
2017-04-28T04:36:14.688Z,1.78
2017-04-28T04:36:40.191Z,1.8
2017-04-28T04:37:05.639Z,1.78
2017-04-28T04:37:31.090Z,1.87
2017-04-28T04:37:56.550Z,1.87
2017-04-28T04:38:22.021Z,1.94
2017-04-28T04:38:47.508Z,1.95
2017-04-28T04:39:13.002Z,1.94
2017-04-28T04:39:38.507Z,1.99
2017-04-28T04:40:03.981Z,1.91
2017-04-28T04:40:29.427Z,2.02
2017-04-28T04:40:54.921Z,2.02
2017-04-28T04:41:20.359Z,2.07
2017-04-28T04:41:45.834Z,1.97
2017-04-28T04:42:11.287Z,1.99
2017-04-28T04:42:36.739Z,1.95
2017-04-28T04:43:02.239Z,2.08
2017-04-28T04:43:27.670Z,2.04
2017-04-28T04:43:53.174Z,2.07
2017-04-28T04:44:18.626Z,2.1
2017-04-28T04:44:44.100Z,2.06
2017-04-28T04:45:09.566Z,2.08
2017-04-28T04:45:35.059Z,2.15
2017-04-28T04:46:00.505Z,2
2017-04-28T04:46:25.944Z,2.06
2017-04-28T04:46:51.439Z,2.04
2017-04-28T04:47:16.895Z,2.11
2017-04-28T04:47:42.345Z,2
2017-04-28T04:48:07.818Z,2.02
2017-04-28T04:48:33.334Z,2
2017-04-28T04:48:58.754Z,2.02
2017-04-28T04:49:24.228Z,2.06
2017-04-28T04:49:49.663Z,2.02
2017-04-28T04:50:15.112Z,2
2017-04-28T04:50:40.576Z,2.1
2017-04-28T04:51:06.019Z,2.13
2017-04-28T04:51:31.491Z,1.99
2017-04-28T04:51:56.981Z,2
2017-04-28T04:52:22.481Z,2.11
2017-04-28T04:52:47.912Z,2.13
2017-04-28T04:53:13.386Z,2.1
2017-04-28T04:53:38.850Z,2.11
2017-04-28T04:54:04.296Z,2.11
2017-04-28T04:54:29.766Z,2.17
2017-04-28T04:54:55.252Z,2.08
2017-04-28T04:55:20.721Z,2.1
2017-04-28T04:55:46.167Z,2.13
2017-04-28T04:56:11.637Z,2.14
2017-04-28T04:56:37.092Z,2.13
2017-04-28T04:57:02.568Z,2.1
2017-04-28T04:57:28.063Z,2.1
2017-04-28T04:57:53.495Z,2.06
2017-04-28T04:58:18.956Z,2.1
2017-04-28T04:58:44.445Z,2.14
2017-04-28T04:59:09.846Z,2.11
2017-04-28T04:59:35.303Z,2.07
2017-04-28T05:00:00.785Z,2.11
2017-04-28T05:00:26.231Z,2.07
2017-04-28T05:00:51.811Z,2.06
2017-04-28T05:01:17.142Z,2.08
2017-04-28T05:01:42.611Z,2.15
2017-04-28T05:02:08.086Z,2.11
2017-04-28T05:02:33.557Z,2.11
2017-04-28T05:02:59.025Z,2.13
2017-04-28T05:03:24.490Z,2.1
2017-04-28T05:03:49.961Z,2.14
2017-04-28T05:04:15.468Z,2.1
2017-04-28T05:04:40.920Z,2.15
2017-04-28T05:05:06.411Z,2.13
2017-04-28T05:05:31.866Z,2.17
2017-04-28T05:05:57.333Z,2.25
2017-04-28T05:06:22.789Z,2.32
2017-04-28T05:06:48.260Z,2.26
2017-04-28T05:07:13.857Z,2.26
2017-04-28T05:07:39.321Z,2.43
2017-04-28T05:08:04.802Z,2.44
2017-04-28T05:08:30.256Z,2.57
2017-04-28T05:08:55.713Z,2.62
2017-04-28T05:09:21.168Z,2.61
2017-04-28T05:09:46.634Z,2.67
2017-04-28T05:10:12.072Z,2.71
2017-04-28T05:10:37.534Z,2.79
2017-04-28T05:11:03.012Z,2.74
2017-04-28T05:11:28.460Z,2.87
2017-04-28T05:11:54.013Z,2.9
2017-04-28T05:12:19.434Z,3
2017-04-28T05:12:44.898Z,3.04
2017-04-28T05:13:10.366Z,3.07
2017-04-28T05:13:35.827Z,3.03
2017-04-28T05:14:01.301Z,3.04
2017-04-28T05:14:26.788Z,3.19
2017-04-28T05:14:52.224Z,3.11
2017-04-28T05:15:17.705Z,3.14
2017-04-28T05:15:43.145Z,3.22
2017-04-28T05:16:08.646Z,3.32
2017-04-28T05:16:34.144Z,3.22
2017-04-28T05:16:59.599Z,3.31
2017-04-28T05:17:25.079Z,3.37
2017-04-28T05:17:50.554Z,3.36
2017-04-28T05:18:16.006Z,3.37
2017-04-28T05:18:41.455Z,3.4
2017-04-28T05:19:06.974Z,3.32
2017-04-28T05:19:32.434Z,3.41
2017-04-28T05:19:57.913Z,3.44
2017-04-28T05:20:23.400Z,3.48
2017-04-28T05:20:48.835Z,3.45
2017-04-28T05:21:14.315Z,3.51
2017-04-28T05:21:39.761Z,3.53
2017-04-28T05:22:05.221Z,3.56
2017-04-28T05:22:30.687Z,3.58
2017-04-28T05:22:56.153Z,3.62
2017-04-28T05:23:21.648Z,3.66
2017-04-28T05:23:47.072Z,3.63
2017-04-28T05:24:12.532Z,3.77
2017-04-28T05:24:38.017Z,3.83
2017-04-28T05:25:03.462Z,3.74
2017-04-28T05:25:28.910Z,3.84
2017-04-28T05:25:54.375Z,3.86
2017-04-28T05:26:19.867Z,3.91
2017-04-28T05:26:45.348Z,4.04
2017-04-28T05:27:10.809Z,4.1
2017-04-28T05:27:36.227Z,4.08
2017-04-28T05:28:01.716Z,4.08
2017-04-28T05:28:27.161Z,4.17
2017-04-28T05:28:52.641Z,4.24
2017-04-28T05:29:18.094Z,4.13
2017-04-28T05:29:43.553Z,4.31
2017-04-28T05:30:09.013Z,4.31
2017-04-28T05:30:34.470Z,4.28
2017-04-28T05:30:59.924Z,4.31
2017-04-28T05:31:25.390Z,4.32
2017-04-28T05:31:50.858Z,4.35
2017-04-28T05:32:16.316Z,4.41
2017-04-28T05:32:41.771Z,4.35
2017-04-28T05:33:07.265Z,4.45
2017-04-28T05:33:32.719Z,4.45
2017-04-28T05:33:58.218Z,4.5
2017-04-28T05:34:23.757Z,4.5
2017-04-28T05:34:49.240Z,4.58
2017-04-28T05:35:14.679Z,4.48
2017-04-28T05:35:40.142Z,4.56
2017-04-28T05:36:05.565Z,4.52
2017-04-28T05:36:31.059Z,4.56
2017-04-28T05:36:56.852Z,4.55
2017-04-28T05:37:22.246Z,4.59
2017-04-28T05:37:47.714Z,4.59
2017-04-28T05:38:13.162Z,4.63
2017-04-28T05:38:38.590Z,4.59
2017-04-28T05:39:04.107Z,4.62
2017-04-28T05:39:29.563Z,4.66
2017-04-28T05:39:55.037Z,4.63
2017-04-28T05:40:20.502Z,4.6
2017-04-28T05:40:45.954Z,4.66
2017-04-28T05:41:11.426Z,4.6
2017-04-28T05:41:36.911Z,4.68
2017-04-28T05:42:02.413Z,4.75
2017-04-28T05:42:27.821Z,4.78
2017-04-28T05:42:53.297Z,4.75
2017-04-28T05:43:18.774Z,4.75
2017-04-28T05:43:44.210Z,4.86
2017-04-28T05:44:09.695Z,4.96
2017-04-28T05:44:35.158Z,4.9
2017-04-28T05:45:00.636Z,4.84
2017-04-28T05:45:26.099Z,4.97
2017-04-28T05:45:51.592Z,4.93
2017-04-28T05:46:17.015Z,4.96
2017-04-28T05:46:42.507Z,4.99
2017-04-28T05:47:07.962Z,5.07
2017-04-28T05:47:33.412Z,5.1
2017-04-28T05:47:58.891Z,5.05
2017-04-28T05:48:24.345Z,5.11
2017-04-28T05:48:49.807Z,5.12
2017-04-28T05:49:15.272Z,5.08
2017-04-28T05:49:40.766Z,5.12
2017-04-28T05:50:06.226Z,5.18
2017-04-28T05:50:31.676Z,5.15
2017-04-28T05:50:57.136Z,5.14
2017-04-28T05:51:22.625Z,5.21
2017-04-28T05:51:48.071Z,5.15
2017-04-28T05:52:13.549Z,5.2
2017-04-28T05:52:39.028Z,5.23
2017-04-28T05:53:04.522Z,5.21
2017-04-28T05:53:29.993Z,5.29
2017-04-28T05:53:55.462Z,5.23
2017-04-28T05:54:20.928Z,5.21
2017-04-28T05:54:46.402Z,5.23
2017-04-28T05:55:11.893Z,5.23
2017-04-28T05:55:37.395Z,5.23
2017-04-28T05:56:02.844Z,5.23
2017-04-28T05:56:28.340Z,5.32
2017-04-28T05:56:53.827Z,5.33
2017-04-28T05:57:19.266Z,5.3
2017-04-28T05:57:44.729Z,5.3
2017-04-28T05:58:10.226Z,5.36
2017-04-28T05:58:35.680Z,5.32
2017-04-28T05:59:01.129Z,5.38
2017-04-28T05:59:26.585Z,5.35
2017-04-28T05:59:52.057Z,5.38
2017-04-28T06:00:17.528Z,5.38
2017-04-28T06:00:43.012Z,5.39
2017-04-28T06:01:08.492Z,5.39
2017-04-28T06:01:34.111Z,5.43
2017-04-28T06:01:59.501Z,5.36
2017-04-28T06:02:24.915Z,5.35
2017-04-28T06:02:50.395Z,5.48
2017-04-28T06:03:15.873Z,5.36
2017-04-28T06:03:41.330Z,5.44
2017-04-28T06:04:06.882Z,5.33
2017-04-28T06:04:32.497Z,5.29
2017-04-28T06:04:57.905Z,5.32
2017-04-28T06:05:23.382Z,5.36
2017-04-28T06:05:48.878Z,5.38
2017-04-28T06:06:14.326Z,5.32
2017-04-28T06:06:39.789Z,5.29
2017-04-28T06:07:05.252Z,5.28
2017-04-28T06:07:30.693Z,5.33
2017-04-28T06:07:56.173Z,5.33
2017-04-28T06:08:21.655Z,5.28
2017-04-28T06:08:47.126Z,5.26
2017-04-28T06:09:12.787Z,5.35
2017-04-28T06:09:38.254Z,5.26
2017-04-28T06:10:03.674Z,5.29
2017-04-28T06:10:29.154Z,5.39
2017-04-28T06:10:54.611Z,5.38
2017-04-28T06:11:20.083Z,5.35
2017-04-28T06:11:45.566Z,5.28
2017-04-28T06:12:11.151Z,5.32
2017-04-28T06:12:36.595Z,5.35
2017-04-28T06:13:02.068Z,5.32
2017-04-28T06:13:27.559Z,5.36
2017-04-28T06:13:53.037Z,5.32
2017-04-28T06:14:18.464Z,5.33
2017-04-28T06:14:43.955Z,5.29
2017-04-28T06:15:09.451Z,5.39
2017-04-28T06:15:34.951Z,5.38
2017-04-28T06:16:00.448Z,5.38
2017-04-28T06:16:25.909Z,5.38
2017-04-28T06:16:51.389Z,5.39
2017-04-28T06:17:16.832Z,5.38
2017-04-28T06:17:42.411Z,5.43
2017-04-28T06:18:07.796Z,5.38
2017-04-28T06:18:33.285Z,5.46
2017-04-28T06:18:58.753Z,5.46
2017-04-28T06:19:24.252Z,5.48
2017-04-28T06:19:49.696Z,5.43
2017-04-28T06:20:15.295Z,5.5
2017-04-28T06:20:40.774Z,5.48
2017-04-28T06:21:06.219Z,5.44
2017-04-28T06:21:31.710Z,5.39
2017-04-28T06:21:57.191Z,5.48
2017-04-28T06:22:22.660Z,5.43
2017-04-28T06:22:48.164Z,5.48
2017-04-28T06:23:13.602Z,5.48
2017-04-28T06:23:39.081Z,5.47
2017-04-28T06:24:04.539Z,5.48
2017-04-28T06:24:30.042Z,5.51
2017-04-28T06:24:55.546Z,5.5
2017-04-28T06:25:21.005Z,5.59
2017-04-28T06:25:46.476Z,5.51
2017-04-28T06:26:11.959Z,5.56
2017-04-28T06:26:37.460Z,5.51
2017-04-28T06:27:02.867Z,5.56
2017-04-28T06:27:28.349Z,5.57
2017-04-28T06:27:53.806Z,5.59
2017-04-28T06:28:19.278Z,5.59
2017-04-28T06:28:44.741Z,5.57
2017-04-28T06:29:10.194Z,5.57
2017-04-28T06:29:35.653Z,5.51
2017-04-28T06:30:01.140Z,5.56
2017-04-28T06:30:26.597Z,5.57
2017-04-28T06:30:52.245Z,5.53
2017-04-28T06:31:17.681Z,5.56
2017-04-28T06:31:43.160Z,5.51
2017-04-28T06:32:08.619Z,5.62
2017-04-28T06:32:34.054Z,5.54
2017-04-28T06:32:59.512Z,5.59
2017-04-28T06:33:24.978Z,5.69
2017-04-28T06:33:50.484Z,5.66
2017-04-28T06:34:15.993Z,5.65
2017-04-28T06:34:41.429Z,5.65
2017-04-28T06:35:06.894Z,5.62
2017-04-28T06:35:32.402Z,5.69
2017-04-28T06:35:57.862Z,5.72
2017-04-28T06:36:23.315Z,5.73
2017-04-28T06:36:48.786Z,5.68
2017-04-28T06:37:14.268Z,5.72
2017-04-28T06:37:39.764Z,5.76
2017-04-28T06:38:05.253Z,5.83
2017-04-28T06:38:30.687Z,5.83
2017-04-28T06:38:56.203Z,5.82
2017-04-28T06:39:21.699Z,5.86
2017-04-28T06:39:47.201Z,5.99
2017-04-28T06:40:12.636Z,5.89
2017-04-28T06:40:38.140Z,5.99
2017-04-28T06:41:03.668Z,5.94
2017-04-28T06:41:29.174Z,5.99
2017-04-28T06:41:54.604Z,6.09
2017-04-28T06:42:20.104Z,6.14
2017-04-28T06:42:45.557Z,6.11
2017-04-28T06:43:11.034Z,6.16
2017-04-28T06:43:36.527Z,6.16
2017-04-28T06:44:01.969Z,6.14
2017-04-28T06:44:27.454Z,6.26
2017-04-28T06:44:52.920Z,6.22
2017-04-28T06:45:18.358Z,6.19
2017-04-28T06:45:43.847Z,6.19
2017-04-28T06:46:09.316Z,6.24
2017-04-28T06:46:34.798Z,6.24
2017-04-28T06:47:00.246Z,6.14
2017-04-28T06:47:25.717Z,6.12
2017-04-28T06:47:51.166Z,6.16
2017-04-28T06:48:16.619Z,6.16
2017-04-28T06:48:42.095Z,6.14
2017-04-28T06:49:07.579Z,6.02
2017-04-28T06:49:33.305Z,6.11
2017-04-28T06:49:58.585Z,6.05
2017-04-28T06:50:24.028Z,6.14
2017-04-28T06:50:49.543Z,6.17
2017-04-28T06:51:14.982Z,6.12
2017-04-28T06:51:40.475Z,6.16
2017-04-28T06:52:05.892Z,6.09
2017-04-28T06:52:31.358Z,6.16
2017-04-28T06:52:56.809Z,6.05
2017-04-28T06:53:22.282Z,6.22
2017-04-28T06:53:47.760Z,6.14
2017-04-28T06:54:13.202Z,6.16
2017-04-28T06:54:38.677Z,6.17
2017-04-28T06:55:04.161Z,6.16
2017-04-28T06:55:29.602Z,6.2
2017-04-28T06:55:55.088Z,6.16
2017-04-28T06:56:21.041Z,6.24
2017-04-28T06:56:46.139Z,6.2
2017-04-28T06:57:11.610Z,6.2
2017-04-28T06:57:37.080Z,6.28
2017-04-28T06:58:02.531Z,6.27
2017-04-28T06:58:28.019Z,6.27
2017-04-28T06:58:53.451Z,6.3
2017-04-28T06:59:18.935Z,6.24
2017-04-28T06:59:44.358Z,6.28
2017-04-28T07:00:09.831Z,6.24
2017-04-28T07:00:35.321Z,6.27
2017-04-28T07:01:00.787Z,6.26
2017-04-28T07:01:26.230Z,6.26
2017-04-28T07:01:51.778Z,6.24
2017-04-28T07:02:17.224Z,6.27
2017-04-28T07:02:42.694Z,6.35
2017-04-28T07:03:08.137Z,6.38
2017-04-28T07:03:33.617Z,6.39
2017-04-28T07:03:59.101Z,6.38
2017-04-28T07:04:24.567Z,6.35
2017-04-28T07:04:50.010Z,6.42
2017-04-28T07:05:15.477Z,6.45
2017-04-28T07:05:40.988Z,6.36
2017-04-28T07:06:06.396Z,6.41
2017-04-28T07:06:31.870Z,6.44
2017-04-28T07:06:57.326Z,6.46
2017-04-28T07:07:22.779Z,6.46
2017-04-28T07:07:48.275Z,6.44
2017-04-28T07:08:13.732Z,6.51
2017-04-28T07:08:39.186Z,6.49
2017-04-28T07:09:04.661Z,6.51
2017-04-28T07:09:30.141Z,6.49
2017-04-28T07:09:55.584Z,6.52
2017-04-28T07:10:21.068Z,6.51
2017-04-28T07:10:46.552Z,6.59
2017-04-28T07:11:12.033Z,6.57
2017-04-28T07:11:37.474Z,6.6
2017-04-28T07:12:02.964Z,6.52
2017-04-28T07:12:28.445Z,6.67
2017-04-28T07:12:53.876Z,6.62
2017-04-28T07:13:19.355Z,6.63
2017-04-28T07:13:44.805Z,6.63
2017-04-28T07:14:10.245Z,6.6
2017-04-28T07:14:35.728Z,6.74
2017-04-28T07:15:01.214Z,6.7
2017-04-28T07:15:26.657Z,6.7
2017-04-28T07:15:52.171Z,6.72
2017-04-28T07:16:17.579Z,6.69
2017-04-28T07:16:43.015Z,6.72
2017-04-28T07:17:08.470Z,6.72
2017-04-28T07:17:33.929Z,6.7
2017-04-28T07:17:59.394Z,6.74
2017-04-28T07:18:24.830Z,6.79
2017-04-28T07:18:50.305Z,6.79
2017-04-28T07:19:15.792Z,6.82
2017-04-28T07:19:41.213Z,6.85
2017-04-28T07:20:06.697Z,6.87
2017-04-28T07:20:32.154Z,6.96
2017-04-28T07:20:57.616Z,6.93
2017-04-28T07:21:23.115Z,6.99
2017-04-28T07:21:48.583Z,7
2017-04-28T07:22:14.047Z,7.02
2017-04-28T07:22:39.483Z,7.02
2017-04-28T07:23:04.952Z,7.07
2017-04-28T07:23:30.430Z,7.06
2017-04-28T07:23:55.871Z,7.23
2017-04-28T07:24:21.329Z,7.24
2017-04-28T07:24:46.829Z,7.2
2017-04-28T07:25:12.270Z,7.17
2017-04-28T07:25:37.750Z,7.24
2017-04-28T07:26:03.222Z,7.18
2017-04-28T07:26:28.676Z,7.24
2017-04-28T07:26:54.142Z,7.2
2017-04-28T07:27:19.633Z,7.33
2017-04-28T07:27:45.118Z,7.31
2017-04-28T07:28:10.547Z,7.17
2017-04-28T07:28:36.034Z,7.21
2017-04-28T07:29:01.529Z,7.23
2017-04-28T07:29:26.991Z,7.23
2017-04-28T07:29:52.447Z,7.23
2017-04-28T07:30:17.947Z,7.2
2017-04-28T07:30:43.427Z,7.36
2017-04-28T07:31:08.880Z,7.21
2017-04-28T07:31:34.339Z,7.18
2017-04-28T07:32:00.649Z,7.23
2017-04-28T07:32:26.155Z,7.23
2017-04-28T07:32:51.627Z,7.18
2017-04-28T07:33:17.115Z,7.32
2017-04-28T07:33:42.536Z,7.2
2017-04-28T07:34:08.012Z,7.24
2017-04-28T07:34:33.505Z,7.28
2017-04-28T07:34:58.908Z,7.15
2017-04-28T07:35:24.353Z,7.18
2017-04-28T07:35:49.935Z,7.15
2017-04-28T07:36:15.470Z,7.13
2017-04-28T07:36:40.932Z,7.2
2017-04-28T07:37:06.399Z,7.23
2017-04-28T07:37:31.882Z,7.23
2017-04-28T07:37:57.339Z,7.21
2017-04-28T07:38:22.852Z,7.25
2017-04-28T07:38:48.309Z,7.23
2017-04-28T07:39:13.813Z,7.28
2017-04-28T07:39:39.279Z,7.24
2017-04-28T07:40:04.789Z,7.24
2017-04-28T07:40:30.251Z,7.38
2017-04-28T07:40:55.704Z,7.31
2017-04-28T07:41:21.220Z,7.35
2017-04-28T07:41:46.685Z,7.35
2017-04-28T07:42:12.285Z,7.4
2017-04-28T07:42:37.721Z,7.45
2017-04-28T07:43:03.193Z,7.5
2017-04-28T07:43:28.635Z,7.58
2017-04-28T07:43:54.102Z,7.45
2017-04-28T07:44:19.608Z,7.61
2017-04-28T07:44:45.075Z,7.6
2017-04-28T07:45:10.839Z,7.6
2017-04-28T07:45:36.264Z,7.67
2017-04-28T07:46:01.752Z,7.73
2017-04-28T07:46:27.210Z,7.8
2017-04-28T07:46:52.667Z,7.85
2017-04-28T07:47:18.117Z,7.94
2017-04-28T07:47:43.585Z,8.05
2017-04-28T07:48:09.058Z,8.06
2017-04-28T07:48:34.515Z,8.08
2017-04-28T07:48:59.986Z,8.18
2017-04-28T07:49:25.462Z,8.24
2017-04-28T07:49:50.950Z,8.27
2017-04-28T07:50:16.430Z,8.28
2017-04-28T07:50:41.901Z,8.34
2017-04-28T07:51:07.332Z,8.36
2017-04-28T07:51:32.832Z,8.3
2017-04-28T07:51:58.255Z,8.3
2017-04-28T07:52:23.764Z,8.37
2017-04-28T07:52:49.223Z,8.3
2017-04-28T07:53:14.691Z,8.34
2017-04-28T07:53:40.162Z,8.33
2017-04-28T07:54:05.649Z,8.31
2017-04-28T07:54:31.111Z,8.33
2017-04-28T07:54:56.561Z,8.37
2017-04-28T07:55:22.030Z,8.44
2017-04-28T07:55:47.508Z,8.46
2017-04-28T07:56:12.993Z,8.53
2017-04-28T07:56:38.490Z,8.48
2017-04-28T07:57:03.922Z,8.49
2017-04-28T07:57:29.394Z,8.49
2017-04-28T07:57:54.887Z,8.56
2017-04-28T07:58:20.312Z,8.56
2017-04-28T07:58:45.783Z,8.6
2017-04-28T07:59:11.255Z,8.58
2017-04-28T07:59:36.711Z,8.53
2017-04-28T08:00:02.172Z,8.56
2017-04-28T08:00:27.666Z,8.48
2017-04-28T08:00:53.077Z,8.53
2017-04-28T08:01:18.557Z,8.46
2017-04-28T08:01:43.998Z,8.45
2017-04-28T08:02:09.456Z,8.41
2017-04-28T08:02:34.947Z,8.37
2017-04-28T08:03:00.398Z,8.33
2017-04-28T08:03:25.874Z,8.24
2017-04-28T08:03:51.350Z,8.31
2017-04-28T08:04:16.790Z,8.23
2017-04-28T08:04:42.259Z,8.3
2017-04-28T08:05:07.737Z,8.37
2017-04-28T08:05:33.220Z,8.31
2017-04-28T08:05:58.701Z,8.3
2017-04-28T08:06:24.209Z,8.33
2017-04-28T08:06:49.637Z,8.19
2017-04-28T08:07:15.108Z,8.24
2017-04-28T08:07:40.577Z,8.23
2017-04-28T08:08:06.027Z,8.26
2017-04-28T08:08:31.508Z,8.27
2017-04-28T08:08:56.969Z,8.3
2017-04-28T08:09:22.411Z,8.26
2017-04-28T08:09:47.899Z,8.27
2017-04-28T08:10:13.365Z,8.31
2017-04-28T08:10:38.854Z,8.34
2017-04-28T08:11:04.314Z,8.23
2017-04-28T08:11:29.793Z,8.31
2017-04-28T08:11:55.260Z,8.34
2017-04-28T08:12:20.728Z,8.31
2017-04-28T08:12:46.217Z,8.33
2017-04-28T08:13:11.661Z,8.38
2017-04-28T08:13:37.148Z,8.44
2017-04-28T08:14:02.576Z,8.38
2017-04-28T08:14:28.048Z,8.46
2017-04-28T08:14:53.515Z,8.45
2017-04-28T08:15:18.995Z,8.45
2017-04-28T08:15:44.481Z,8.49
2017-04-28T08:16:09.951Z,8.44
2017-04-28T08:16:35.428Z,8.52
2017-04-28T08:17:00.923Z,8.42
2017-04-28T08:17:26.354Z,8.42
2017-04-28T08:17:51.813Z,8.44
2017-04-28T08:18:17.280Z,8.42
2017-04-28T08:18:42.739Z,8.42
2017-04-28T08:19:08.210Z,8.53
2017-04-28T08:19:33.702Z,8.45
2017-04-28T08:19:59.132Z,8.44
2017-04-28T08:20:24.639Z,8.46
2017-04-28T08:20:50.062Z,8.45
2017-04-28T08:21:15.536Z,8.56
2017-04-28T08:21:40.987Z,8.58
2017-04-28T08:22:06.473Z,8.63
2017-04-28T08:22:31.942Z,8.64
2017-04-28T08:22:57.399Z,8.67
2017-04-28T08:23:22.892Z,8.74
2017-04-28T08:23:48.392Z,8.85
2017-04-28T08:24:13.865Z,8.78
2017-04-28T08:24:39.300Z,8.87
2017-04-28T08:25:04.775Z,9.03
2017-04-28T08:25:30.224Z,9.08
2017-04-28T08:25:55.678Z,9.08
2017-04-28T08:26:21.145Z,9.16
2017-04-28T08:26:46.637Z,9.22
2017-04-28T08:27:12.120Z,9.29
2017-04-28T08:27:37.579Z,9.31
2017-04-28T08:28:03.050Z,9.29
2017-04-28T08:28:28.527Z,9.28
2017-04-28T08:28:54.018Z,9.34
2017-04-28T08:29:19.504Z,9.29
2017-04-28T08:29:44.943Z,9.28
2017-04-28T08:30:10.426Z,9.25
2017-04-28T08:30:35.879Z,9.31
2017-04-28T08:31:01.353Z,9.26
2017-04-28T08:31:26.891Z,9.28
2017-04-28T08:31:52.287Z,9.28
2017-04-28T08:32:17.764Z,9.26
2017-04-28T08:32:43.242Z,9.26
2017-04-28T08:33:08.663Z,9.31
2017-04-28T08:33:34.147Z,9.29
2017-04-28T08:33:59.614Z,9.26
2017-04-28T08:34:25.081Z,9.23
2017-04-28T08:34:50.579Z,9.28
2017-04-28T08:35:16.064Z,9.26
2017-04-28T08:35:41.515Z,9.29
2017-04-28T08:36:07.005Z,9.31
2017-04-28T08:36:32.465Z,9.39
2017-04-28T08:36:57.927Z,9.41
2017-04-28T08:37:23.391Z,9.36
2017-04-28T08:37:48.877Z,9.4
2017-04-28T08:38:14.330Z,9.41
2017-04-28T08:38:39.782Z,9.47
2017-04-28T08:39:05.237Z,9.5
2017-04-28T08:39:30.693Z,9.54
2017-04-28T08:39:56.211Z,9.58
2017-04-28T08:40:21.655Z,9.54
2017-04-28T08:40:47.128Z,9.69
2017-04-28T08:41:12.561Z,9.66
2017-04-28T08:41:38.064Z,9.77
2017-04-28T08:42:03.580Z,9.83
2017-04-28T08:42:28.997Z,9.84
2017-04-28T08:42:54.463Z,9.95
2017-04-28T08:43:19.947Z,9.94
2017-04-28T08:43:45.409Z,10.07
2017-04-28T08:44:10.844Z,10.02
2017-04-28T08:44:36.306Z,10.13
2017-04-28T08:45:01.781Z,10.17
2017-04-28T08:45:27.236Z,10.23
2017-04-28T08:45:52.735Z,10.33
2017-04-28T08:46:18.170Z,10.35
2017-04-28T08:46:43.672Z,10.41
2017-04-28T08:47:09.167Z,10.37
2017-04-28T08:47:34.619Z,10.44
2017-04-28T08:48:00.091Z,10.51
2017-04-28T08:48:25.574Z,10.57
2017-04-28T08:48:51.070Z,10.51
2017-04-28T08:49:16.535Z,10.56
2017-04-28T08:49:42.022Z,10.51
2017-04-28T08:50:07.474Z,10.56
2017-04-28T08:50:32.961Z,10.51
2017-04-28T08:50:58.417Z,10.51
2017-04-28T08:51:23.898Z,10.4
2017-04-28T08:51:49.336Z,10.41
2017-04-28T08:52:14.811Z,10.26
2017-04-28T08:52:40.307Z,10.3
2017-04-28T08:53:05.775Z,10.2
2017-04-28T08:53:31.262Z,10.26
2017-04-28T08:53:56.738Z,10.15
2017-04-28T08:54:22.220Z,10.05
2017-04-28T08:54:47.677Z,10.12
2017-04-28T08:55:13.147Z,10.09
2017-04-28T08:55:38.632Z,10.1
2017-04-28T08:56:04.125Z,9.97
2017-04-28T08:56:29.570Z,9.87
2017-04-28T08:56:55.062Z,9.89
2017-04-28T08:57:20.519Z,9.92
2017-04-28T08:57:45.988Z,9.79
2017-04-28T08:58:11.466Z,9.76
2017-04-28T08:58:36.939Z,9.76
2017-04-28T08:59:02.430Z,9.74
2017-04-28T08:59:27.916Z,9.62
2017-04-28T08:59:53.401Z,9.62
2017-04-28T09:00:18.910Z,9.65
2017-04-28T09:00:44.339Z,9.72
2017-04-28T09:01:09.812Z,9.56
2017-04-28T09:01:35.305Z,9.64
2017-04-28T09:02:00.787Z,9.55
2017-04-28T09:02:26.243Z,9.51
2017-04-28T09:02:51.748Z,9.5
2017-04-28T09:03:17.184Z,9.58
2017-04-28T09:03:42.661Z,9.4
2017-04-28T09:04:08.129Z,9.39
2017-04-28T09:04:33.579Z,9.41
2017-04-28T09:04:59.065Z,9.37
2017-04-28T09:05:24.521Z,9.25
2017-04-28T09:05:50.009Z,9.32
2017-04-28T09:06:15.461Z,9.22
2017-04-28T09:06:40.914Z,9.21
2017-04-28T09:07:06.414Z,9.11
2017-04-28T09:07:32.076Z,9.11
2017-04-28T09:07:57.500Z,9.08
2017-04-28T09:08:22.951Z,9.1
2017-04-28T09:08:48.386Z,9.08
2017-04-28T09:09:13.832Z,9.04
2017-04-28T09:09:39.324Z,8.99
2017-04-28T09:10:04.890Z,8.91
2017-04-28T09:10:30.380Z,8.87
2017-04-28T09:10:55.805Z,8.88
2017-04-28T09:11:21.269Z,8.78
2017-04-28T09:11:46.757Z,8.71
2017-04-28T09:12:12.206Z,8.56
2017-04-28T09:12:37.729Z,8.63
2017-04-28T09:13:03.159Z,8.63
2017-04-28T09:13:28.640Z,8.53
2017-04-28T09:13:54.107Z,8.6
2017-04-28T09:14:19.519Z,8.45
2017-04-28T09:14:45.063Z,8.44
2017-04-28T09:15:10.461Z,8.41
2017-04-28T09:15:35.931Z,8.36
2017-04-28T09:16:01.460Z,8.33
2017-04-28T09:16:26.847Z,8.34
2017-04-28T09:16:52.333Z,8.36
2017-04-28T09:17:17.796Z,8.23
2017-04-28T09:17:43.241Z,8.24
2017-04-28T09:18:08.749Z,8.27
2017-04-28T09:18:34.222Z,8.27
2017-04-28T09:18:59.663Z,8.36
2017-04-28T09:19:25.125Z,8.3
2017-04-28T09:19:50.690Z,8.24
2017-04-28T09:20:16.130Z,8.3
2017-04-28T09:20:41.573Z,8.53
2017-04-28T09:21:07.097Z,8.46
2017-04-28T09:21:32.581Z,8.46
2017-04-28T09:21:57.999Z,8.45
2017-04-28T09:22:23.495Z,8.53
2017-04-28T09:22:48.940Z,8.51
2017-04-28T09:23:14.390Z,8.56
2017-04-28T09:23:39.870Z,8.6
2017-04-28T09:24:05.333Z,8.6
2017-04-28T09:24:30.793Z,8.61
2017-04-28T09:24:56.264Z,8.61
2017-04-28T09:25:21.727Z,8.63
2017-04-28T09:25:47.167Z,8.49
2017-04-28T09:26:12.641Z,8.58
2017-04-28T09:26:38.213Z,8.58
2017-04-28T09:27:03.642Z,8.52
2017-04-28T09:27:29.133Z,8.55
2017-04-28T09:27:54.576Z,8.46
2017-04-28T09:28:20.079Z,8.42
2017-04-28T09:28:45.580Z,8.41
2017-04-28T09:29:11.080Z,8.23
2017-04-28T09:29:36.535Z,8.23
2017-04-28T09:30:02.001Z,8.19
2017-04-28T09:30:27.447Z,8.19
2017-04-28T09:30:52.940Z,8.19
2017-04-28T09:31:18.398Z,8.2
2017-04-28T09:31:43.864Z,8.24
2017-04-28T09:32:09.319Z,8.23
2017-04-28T09:32:34.795Z,8.23
2017-04-28T09:33:00.252Z,8.24
2017-04-28T09:33:25.728Z,8.28
2017-04-28T09:33:51.192Z,8.24
2017-04-28T09:34:16.667Z,8.28
2017-04-28T09:34:42.119Z,8.24
2017-04-28T09:35:07.572Z,8.24
2017-04-28T09:35:33.106Z,8.31
2017-04-28T09:35:58.596Z,8.2
2017-04-28T09:36:23.972Z,8.23
2017-04-28T09:36:49.465Z,8.31
2017-04-28T09:37:14.922Z,8.2
2017-04-28T09:37:40.373Z,8.16
2017-04-28T09:38:05.819Z,8.2
2017-04-28T09:38:31.265Z,8.19
2017-04-28T09:38:56.780Z,8.26
2017-04-28T09:39:22.196Z,8.23
2017-04-28T09:39:47.630Z,8.27
2017-04-28T09:40:13.104Z,8.26